Time;durP1;ratioP1;P1;durP2;ratioP2;P2;SDS_P1;SDS_P2;PMS_P1;PMS_P2;Temp;Humidity;BMP_temperature;BMP_pressure;BME280_temperature;BME280_humidity;BME280_pressure;Samples;Min_cycle;Max_cycle;Signal;HPM_P1;HPM_P2
2023/05/21 00:01:47;;;;;;;;;;;;;;;17.96;100.00;-18510.56;5011713;28;19921;-79
2023/05/21 00:04:14;;;;;;;;;;;;;;;17.87;100.00;-18507.97;5011077;28;20369;-79
2023/05/21 00:06:39;;;;;;;;;;;;;;;17.78;100.00;-18505.81;5013909;28;19917;-79
2023/05/21 00:09:05;;;;;;;;;;;;;;;17.84;100.00;-18507.16;5014524;28;20293;-79
2023/05/21 00:11:31;;;;;;;;;;;;;;;17.77;100.00;-18505.38;5015605;28;19995;-79
2023/05/21 00:13:57;;;;;;;;;;;;;;;17.77;100.00;-18505.38;5014438;28;20028;-79
2023/05/21 00:16:22;;;;;;;;;;;;;;;17.66;100.00;-18502.38;5007251;28;20428;-79
2023/05/21 00:18:48;;;;;;;;;;;;;;;17.69;100.00;-18503.34;5007706;28;19925;-78
2023/05/21 00:21:16;;;;;;;;;;;;;;;17.66;100.00;-18502.38;4998367;28;20325;-79
2023/05/21 00:23:42;;;;;;;;;;;;;;;17.61;100.00;-18501.16;5008826;28;19944;-79
2023/05/21 00:26:07;;;;;;;;;;;;;;;17.66;100.00;-18502.50;5001941;28;19922;-79
2023/05/21 00:28:32;;;;;;;;;;;;;;;17.50;100.00;-18498.16;5002278;28;20324;-78
2023/05/21 00:30:57;;;;;;;;;;;;;;;17.42;100.00;-18496.09;5009653;28;19921;-79
2023/05/21 00:33:25;;;;;;;;;;;;;;;17.46;100.00;-18497.06;5009577;28;20004;-79
2023/05/21 00:35:50;;;;;;;;;;;;;;;17.57;100.00;-18500.06;5008179;28;19922;-79
2023/05/21 00:38:16;;;;;;;;;;;;;;;17.46;100.00;-18497.06;5006172;28;20055;-79
2023/05/21 00:40:42;;;;;;;;;;;;;;;17.36;100.00;-18494.47;5009767;28;19925;-79
2023/05/21 00:43:09;;;;;;;;;;;;;;;17.40;100.00;-18495.56;5010045;28;19917;-78
2023/05/21 00:45:35;;;;;;;;;;;;;;;17.28;100.00;-18492.41;5010207;28;19928;-77
2023/05/21 00:48:02;;;;;;;;;;;;;;;17.26;100.00;-18491.88;5009235;28;19918;-77
2023/05/21 00:50:29;;;;;;;;;;;;;;;17.28;100.00;-18492.41;5007379;28;19971;-79
2023/05/21 00:52:54;;;;;;;;;;;;;;;17.12;100.00;-18488.19;5011183;28;19971;-80
2023/05/21 00:55:19;;;;;;;;;;;;;;;17.07;100.00;-18486.69;5013131;28;19917;-79
2023/05/21 00:57:45;;;;;;;;;;;;;;;17.10;100.00;-18487.63;5014554;28;19921;-78
2023/05/21 01:00:10;;;;;;;;;;;;;;;17.07;100.00;-18486.69;5012711;28;19934;-79
2023/05/21 01:02:36;;;;;;;;;;;;;;;17.20;100.00;-18490.22;5009787;28;19922;-79
2023/05/21 01:05:05;;;;;;;;;;;;;;;17.23;100.00;-18490.91;5009065;28;20400;-79
2023/05/21 01:07:34;;;;;;;;;;;;;;;17.14;100.00;-18488.59;5013322;28;19917;-79
2023/05/21 01:10:01;;;;;;;;;;;;;;;17.03;100.00;-18485.59;5012823;28;19993;-77
2023/05/21 01:12:28;;;;;;;;;;;;;;;17.09;100.00;-18487.22;5013910;28;20376;-79
2023/05/21 01:14:53;;;;;;;;;;;;;;;17.13;100.00;-18488.31;5014173;28;20476;-79
2023/05/21 01:17:22;;;;;;;;;;;;;;;17.22;100.00;-18490.66;5007510;28;19957;-79
2023/05/21 01:19:48;;;;;;;;;;;;;;;17.02;100.00;-18485.44;4997946;28;19941;-78
2023/05/21 01:22:17;;;;;;;;;;;;;;;17.12;100.00;-18488.19;5012079;28;20012;-78
2023/05/21 01:24:46;;;;;;;;;;;;;;;16.98;100.00;-18484.22;5012727;28;20040;-78
2023/05/21 01:27:11;;;;;;;;;;;;;;;16.89;100.00;-18481.91;5013572;28;19940;-79
2023/05/21 01:29:36;;;;;;;;;;;;;;;16.75;100.00;-18478.06;5012725;28;19918;-79
2023/05/21 01:32:26;;;;;;;;;;;;;;;16.77;100.00;-18478.75;5012421;28;19964;-80
2023/05/21 01:34:52;;;;;;;;;;;;;;;16.70;100.00;-18476.84;5024972;28;19928;-80
2023/05/21 01:37:22;;;;;;;;;;;;;;;16.42;100.00;-18469.34;5013162;28;19917;-79
2023/05/21 01:39:54;;;;;;;;;;;;;;;16.33;100.00;-18466.88;5013872;28;19918;-79
2023/05/21 01:42:21;;;;;;;;;;;;;;;16.24;100.00;-18464.69;5011130;28;19925;-80
2023/05/21 01:44:47;;;;;;;;;;;;;;;16.29;100.00;-18465.91;5013026;28;20012;-80
2023/05/21 01:47:13;;;;;;;;;;;;;;;16.21;100.00;-18463.72;5013674;28;19968;-80
2023/05/21 01:49:38;;;;;;;;;;;;;;;16.16;100.00;-18462.38;5013226;28;19932;-79
2023/05/21 01:52:04;;;;;;;;;;;;;;;16.07;100.00;-18459.91;5010249;28;19935;-80
2023/05/21 01:54:29;;;;;;;;;;;;;;;16.08;100.00;-18460.31;5005793;28;19926;-78
2023/05/21 01:56:54;;;;;;;;;;;;;;;15.97;100.00;-18457.44;5012855;28;19921;-79
2023/05/21 01:59:20;;;;;;;;;;;;;;;15.85;100.00;-18454.03;5012734;28;19918;-79
2023/05/21 02:01:45;;;;;;;;;;;;;;;15.84;100.00;-18453.88;5013494;28;19921;-80
2023/05/21 02:04:10;;;;;;;;;;;;;;;15.77;100.00;-18452.13;5011809;28;19918;-79
2023/05/21 02:06:38;;;;;;;;;;;;;;;15.74;100.00;-18451.16;4996171;28;20401;-79
2023/05/21 02:09:03;;;;;;;;;;;;;;;15.75;100.00;-18451.56;5000337;28;19954;-79
2023/05/21 02:11:29;;;;;;;;;;;;;;;15.78;100.00;-18452.38;4999543;28;19960;-79
2023/05/21 02:13:56;;;;;;;;;;;;;;;15.79;100.00;-18452.53;4998872;28;19930;-79
2023/05/21 02:16:21;;;;;;;;;;;;;;;15.80;100.00;-18452.78;5000008;28;19921;-80
2023/05/21 02:18:50;;;;;;;;;;;;;;;15.61;100.00;-18447.59;5000936;28;20095;-79
2023/05/21 02:21:15;;;;;;;;;;;;;;;15.55;100.00;-18446.22;4997635;28;19928;-80
2023/05/21 02:23:41;;;;;;;;;;;;;;;15.57;100.00;-18446.78;5000679;28;19921;-78
2023/05/21 02:26:06;;;;;;;;;;;;;;;15.54;100.00;-18445.94;5003608;28;19947;-78
2023/05/21 02:28:32;;;;;;;;;;;;;;;15.41;100.00;-18442.41;4995898;28;19932;-80
2023/05/21 02:30:57;;;;;;;;;;;;;;;15.44;100.00;-18443.22;5000221;28;19937;-79
2023/05/21 02:33:22;;;;;;;;;;;;;;;15.37;100.00;-18441.16;5001198;28;19960;-78
2023/05/21 02:35:48;;;;;;;;;;;;;;;15.35;100.00;-18440.88;4995657;28;19922;-79
2023/05/21 02:38:13;;;;;;;;;;;;;;;15.42;100.00;-18442.66;4996297;28;20020;-79
2023/05/21 02:40:38;;;;;;;;;;;;;;;15.29;100.00;-18439.13;5013605;28;19929;-79
2023/05/21 02:43:04;;;;;;;;;;;;;;;15.31;100.00;-18439.66;5003232;28;19984;-80
2023/05/21 02:45:29;;;;;;;;;;;;;;;15.37;100.00;-18441.16;4997907;28;19926;-78
2023/05/21 02:47:54;;;;;;;;;;;;;;;15.26;100.00;-18438.28;5004507;28;19930;-80
2023/05/21 02:50:21;;;;;;;;;;;;;;;15.23;100.00;-18437.47;4996267;28;19921;-79
2023/05/21 02:52:46;;;;;;;;;;;;;;;15.17;100.00;-18435.84;5000026;28;19945;-79
2023/05/21 02:55:12;;;;;;;;;;;;;;;15.35;100.00;-18440.75;4998275;28;19922;-79
2023/05/21 02:57:37;;;;;;;;;;;;;;;15.34;100.00;-18440.47;5002263;28;19929;-76
2023/05/21 03:00:04;;;;;;;;;;;;;;;15.16;100.00;-18435.69;5001984;28;20499;-79
2023/05/21 03:02:30;;;;;;;;;;;;;;;15.28;100.00;-18438.84;5004565;28;19981;-78
2023/05/21 03:04:55;;;;;;;;;;;;;;;15.17;100.00;-18435.84;5020110;28;19957;-79
2023/05/21 03:07:20;;;;;;;;;;;;;;;15.11;100.00;-18434.47;5010198;28;19922;-78
2023/05/21 03:09:46;;;;;;;;;;;;;;;15.28;100.00;-18438.84;5004039;28;19949;-78
2023/05/21 03:12:11;;;;;;;;;;;;;;;15.21;100.00;-18437.06;4998978;28;19925;-79
2023/05/21 03:14:36;;;;;;;;;;;;;;;15.32;100.00;-18439.94;4995708;28;19925;-79
2023/05/21 03:17:04;;;;;;;;;;;;;;;15.27;100.00;-18438.56;4997931;28;19922;-79
2023/05/21 03:19:33;;;;;;;;;;;;;;;15.30;100.00;-18439.38;4995015;28;19922;-80
2023/05/21 03:21:58;;;;;;;;;;;;;;;15.39;100.00;-18441.84;4994285;28;19928;-79
2023/05/21 03:24:23;;;;;;;;;;;;;;;15.23;100.00;-18437.59;4993625;28;19925;-79
2023/05/21 03:26:49;;;;;;;;;;;;;;;15.17;100.00;-18435.97;4993730;28;19925;-78
2023/05/21 03:29:14;;;;;;;;;;;;;;;15.19;100.00;-18436.38;4993293;28;19921;-77
2023/05/21 03:31:39;;;;;;;;;;;;;;;15.11;100.00;-18434.47;4997241;28;20297;-80
2023/05/21 03:34:07;;;;;;;;;;;;;;;15.14;100.00;-18435.00;4995742;28;19922;-77
2023/05/21 03:36:32;;;;;;;;;;;;;;;15.20;100.00;-18436.66;4993109;28;19922;-78
2023/05/21 03:38:57;;;;;;;;;;;;;;;15.08;100.00;-18433.63;4997407;28;20313;-79
2023/05/21 03:41:22;;;;;;;;;;;;;;;15.10;100.00;-18434.19;4996983;28;19929;-77
2023/05/21 03:43:48;;;;;;;;;;;;;;;15.17;100.00;-18435.84;4997246;28;20047;-79
2023/05/21 03:46:13;;;;;;;;;;;;;;;15.07;100.00;-18433.38;4998098;28;19929;-79
2023/05/21 03:48:38;;;;;;;;;;;;;;;15.06;100.00;-18433.09;4999440;28;19952;-79
2023/05/21 03:51:03;;;;;;;;;;;;;;;15.15;100.00;-18435.41;5002950;28;19925;-78
2023/05/21 03:53:29;;;;;;;;;;;;;;;15.14;100.00;-18435.00;5004506;28;19957;-79
2023/05/21 03:55:54;;;;;;;;;;;;;;;15.04;100.00;-18432.53;5011759;28;19926;-79
2023/05/21 03:58:20;;;;;;;;;;;;;;;15.08;100.00;-18433.50;5010911;28;19918;-78
2023/05/21 04:00:46;;;;;;;;;;;;;;;15.10;100.00;-18434.06;5013005;28;19957;-78
2023/05/21 04:03:11;;;;;;;;;;;;;;;15.17;100.00;-18435.84;5012363;28;19924;-79
2023/05/21 04:05:36;;;;;;;;;;;;;;;15.13;100.00;-18434.88;5011861;28;19921;-79
2023/05/21 04:08:01;;;;;;;;;;;;;;;15.11;100.00;-18434.47;5011239;28;19918;-79
2023/05/21 04:10:27;;;;;;;;;;;;;;;15.06;100.00;-18433.09;5008996;28;19976;-78
2023/05/21 04:12:52;;;;;;;;;;;;;;;15.03;100.00;-18432.28;5011043;28;20556;-79
2023/05/21 04:15:20;;;;;;;;;;;;;;;15.12;100.00;-18434.72;5007081;28;19928;-79
2023/05/21 04:17:45;;;;;;;;;;;;;;;15.25;100.00;-18438.16;5010323;28;19952;-79
2023/05/21 04:20:15;;;;;;;;;;;;;;;15.09;100.00;-18433.78;5007459;28;19952;-78
2023/05/21 04:22:40;;;;;;;;;;;;;;;15.21;100.00;-18436.94;5011234;28;19917;-79
2023/05/21 04:25:06;;;;;;;;;;;;;;;14.98;100.00;-18430.91;5010167;28;19926;-78
2023/05/21 04:27:31;;;;;;;;;;;;;;;15.16;100.00;-18435.56;5009646;28;19929;-77
2023/05/21 04:29:56;;;;;;;;;;;;;;;15.14;100.00;-18435.00;5017370;28;19917;-78
2023/05/21 04:32:22;;;;;;;;;;;;;;;15.19;100.00;-18436.50;5010674;28;20463;-78
2023/05/21 04:34:47;;;;;;;;;;;;;;;15.24;100.00;-18437.88;5010967;28;19945;-78
2023/05/21 04:37:13;;;;;;;;;;;;;;;15.23;100.00;-18437.47;5008479;28;19979;-79
2023/05/21 04:39:39;;;;;;;;;;;;;;;15.34;100.00;-18440.47;5010452;28;19917;-79
2023/05/21 04:42:05;;;;;;;;;;;;;;;15.26;100.00;-18438.44;5011896;28;19924;-80
2023/05/21 04:44:30;;;;;;;;;;;;;;;15.29;100.00;-18439.13;5010503;28;20020;-78
2023/05/21 04:46:56;;;;;;;;;;;;;;;15.25;100.00;-18438.03;5024243;23;19937;-82
2023/05/21 04:49:21;;;;;;;;;;;;;;;15.34;100.00;-18440.47;4999887;28;19918;-81
2023/05/21 04:51:48;;;;;;;;;;;;;;;15.39;100.00;-18441.84;5005595;28;20392;-81
2023/05/21 04:54:13;;;;;;;;;;;;;;;15.44;100.00;-18443.22;5003775;28;19979;-81
2023/05/21 04:56:38;;;;;;;;;;;;;;;15.49;100.00;-18444.59;4997151;28;20024;-81
2023/05/21 04:59:05;;;;;;;;;;;;;;;15.55;100.00;-18446.22;4999418;28;19932;-81
2023/05/21 05:01:31;;;;;;;;;;;;;;;15.66;100.00;-18448.97;4993726;28;19937;-81
2023/05/21 05:03:56;;;;;;;;;;;;;;;15.84;100.00;-18453.88;4998125;28;19967;-81
2023/05/21 05:06:24;;;;;;;;;;;;;;;15.98;100.00;-18457.72;4999514;28;19929;-81
2023/05/21 05:08:50;;;;;;;;;;;;;;;16.01;100.00;-18458.41;5005887;28;19922;-82
2023/05/21 05:11:15;;;;;;;;;;;;;;;15.96;100.00;-18457.16;4998903;28;20316;-82
2023/05/21 05:13:40;;;;;;;;;;;;;;;15.62;100.00;-18448.00;4998565;28;19918;-81
2023/05/21 05:16:06;;;;;;;;;;;;;;;15.53;100.00;-18445.69;4992395;28;19980;-82
2023/05/21 05:18:32;;;;;;;;;;;;;;;15.62;100.00;-18447.88;4991984;28;19922;-81
2023/05/21 05:20:58;;;;;;;;;;;;;;;15.75;100.00;-18451.44;4999585;28;20363;-81
2023/05/21 05:23:23;;;;;;;;;;;;;;;15.54;100.00;-18445.81;5000933;28;20017;-81
2023/05/21 05:25:48;;;;;;;;;;;;;;;15.44;100.00;-18443.22;5010312;28;19926;-80
2023/05/21 05:28:13;;;;;;;;;;;;;;;15.31;100.00;-18439.66;5011078;28;19928;-81
2023/05/21 05:30:39;;;;;;;;;;;;;;;15.36;100.00;-18441.03;4998636;28;19922;-81
2023/05/21 05:33:04;;;;;;;;;;;;;;;15.39;100.00;-18441.84;5019288;28;19932;-81
2023/05/21 05:35:29;;;;;;;;;;;;;;;15.30;100.00;-18439.38;5003330;28;19961;-81
2023/05/21 05:37:55;;;;;;;;;;;;;;;15.14;100.00;-18435.16;5004863;28;19980;-81
2023/05/21 05:40:20;;;;;;;;;;;;;;;15.37;100.00;-18441.31;4999043;28;19921;-81
2023/05/21 05:42:48;;;;;;;;;;;;;;;15.46;100.00;-18443.63;5008663;28;19925;-80
2023/05/21 05:45:13;;;;;;;;;;;;;;;15.52;100.00;-18445.41;5009244;28;19936;-81
2023/05/21 05:47:39;;;;;;;;;;;;;;;15.39;100.00;-18441.72;5004156;28;19926;-81
2023/05/21 05:50:05;;;;;;;;;;;;;;;15.48;100.00;-18444.31;5002714;28;19922;-81
2023/05/21 05:52:30;;;;;;;;;;;;;;;15.53;100.00;-18445.69;4999587;28;19929;-81
2023/05/21 05:54:55;;;;;;;;;;;;;;;15.62;100.00;-18447.88;5002115;28;19925;-81
2023/05/21 05:57:20;;;;;;;;;;;;;;;15.73;100.00;-18450.88;5005858;28;19928;-81
2023/05/21 05:59:46;;;;;;;;;;;;;;;15.79;100.00;-18452.53;5013591;28;19922;-81
2023/05/21 06:02:11;;;;;;;;;;;;;;;15.79;100.00;-18452.66;5008068;28;19921;-81
2023/05/21 06:04:36;;;;;;;;;;;;;;;15.68;100.00;-18449.66;5006101;28;19940;-81
2023/05/21 06:07:01;;;;;;;;;;;;;;;15.67;100.00;-18449.22;5002028;28;20549;-81
2023/05/21 06:09:27;;;;;;;;;;;;;;;15.79;100.00;-18452.53;5002133;28;19953;-81
2023/05/21 06:11:52;;;;;;;;;;;;;;;15.88;100.00;-18454.84;5010214;28;19975;-81
2023/05/21 06:14:17;;;;;;;;;;;;;;;15.94;100.00;-18456.63;5002225;28;19921;-81
2023/05/21 06:16:42;;;;;;;;;;;;;;;16.18;100.00;-18462.91;5000180;28;19929;-81
2023/05/21 06:19:08;;;;;;;;;;;;;;;16.19;100.00;-18463.19;5000797;28;20384;-82
2023/05/21 06:21:33;;;;;;;;;;;;;;;16.29;100.00;-18465.91;5000851;28;19926;-81
2023/05/21 06:23:58;;;;;;;;;;;;;;;16.25;100.00;-18464.81;5003628;28;19932;-80
2023/05/21 06:26:23;;;;;;;;;;;;;;;16.16;100.00;-18462.38;5006234;28;19972;-81
2023/05/21 06:28:49;;;;;;;;;;;;;;;16.22;100.00;-18464.13;5000537;28;20352;-81
2023/05/21 06:31:15;;;;;;;;;;;;;;;16.26;100.00;-18464.97;5001461;28;19922;-81
2023/05/21 06:33:40;;;;;;;;;;;;;;;16.08;100.00;-18460.19;5002043;28;19922;-81
2023/05/21 06:36:05;;;;;;;;;;;;;;;16.21;100.00;-18463.72;5003380;28;20361;-81
2023/05/21 06:38:30;;;;;;;;;;;;;;;16.24;100.00;-18464.56;5007868;28;19983;-81
2023/05/21 06:40:57;;;;;;;;;;;;;;;16.39;100.00;-18468.50;5002433;28;20388;-81
2023/05/21 06:43:22;;;;;;;;;;;;;;;16.56;100.00;-18473.03;5005890;28;19925;-80
2023/05/21 06:45:48;;;;;;;;;;;;;;;16.42;100.00;-18469.47;4999241;28;19922;-80
2023/05/21 06:48:15;;;;;;;;;;;;;;;16.52;100.00;-18471.94;5005076;28;19925;-80
2023/05/21 06:50:40;;;;;;;;;;;;;;;16.50;100.00;-18471.53;5014575;28;19944;-82
2023/05/21 06:53:05;;;;;;;;;;;;;;;16.56;100.00;-18473.16;5014695;28;19917;-80
2023/05/21 06:55:30;;;;;;;;;;;;;;;16.63;100.00;-18474.94;5010145;28;19925;-80
2023/05/21 06:57:56;;;;;;;;;;;;;;;16.66;100.00;-18475.75;5011512;28;20376;-80
2023/05/21 07:00:21;;;;;;;;;;;;;;;16.73;100.00;-18477.66;5012472;28;19968;-81
2023/05/21 07:02:47;;;;;;;;;;;;;;;16.76;100.00;-18478.50;5006586;28;19924;-81
2023/05/21 07:05:12;;;;;;;;;;;;;;;16.88;100.00;-18481.75;5009399;28;20246;-80
2023/05/21 07:07:37;;;;;;;;;;;;;;;16.83;100.00;-18480.41;5013031;28;20372;-81
2023/05/21 07:10:02;;;;;;;;;;;;;;;16.82;100.00;-18480.13;5016335;28;19928;-81
2023/05/21 07:12:28;;;;;;;;;;;;;;;16.92;100.00;-18482.88;5005531;28;19918;-81
2023/05/21 07:14:53;;;;;;;;;;;;;;;16.69;100.00;-18476.56;5009661;28;19925;-82
2023/05/21 07:17:18;;;;;;;;;;;;;;;16.79;100.00;-18479.16;5010996;28;20445;-80
2023/05/21 07:19:43;;;;;;;;;;;;;;;16.87;100.00;-18481.50;5006431;28;19953;-80
2023/05/21 07:22:08;;;;;;;;;;;;;;;17.02;100.00;-18485.31;5017310;28;20585;-82
2023/05/21 07:24:34;;;;;;;;;;;;;;;17.09;100.00;-18487.38;4995413;28;20389;-82
2023/05/21 07:26:59;;;;;;;;;;;;;;;17.18;100.00;-18489.69;5012467;28;20332;-80
2023/05/21 07:29:24;;;;;;;;;;;;;;;17.47;100.00;-18497.47;5010044;28;20315;-81
2023/05/21 07:31:50;;;;;;;;;;;;;;;17.45;100.00;-18496.78;5013756;28;20423;-81
2023/05/21 07:34:15;;;;;;;;;;;;;;;17.35;100.00;-18494.34;4999028;28;19917;-81
2023/05/21 07:36:40;;;;;;;;;;;;;;;17.47;100.00;-18497.34;5015447;28;20153;-80
2023/05/21 07:39:05;;;;;;;;;;;;;;;17.64;100.00;-18501.84;5007964;28;19917;-81
2023/05/21 07:41:31;;;;;;;;;;;;;;;17.91;100.00;-18509.06;4996040;28;19967;-82
2023/05/21 07:43:56;;;;;;;;;;;;;;;17.91;100.00;-18509.06;5012360;28;19922;-81
2023/05/21 07:46:22;;;;;;;;;;;;;;;17.83;100.00;-18506.88;5013077;28;19941;-81
2023/05/21 07:48:48;;;;;;;;;;;;;;;18.09;100.00;-18513.84;5013432;28;19929;-81
2023/05/21 07:51:14;;;;;;;;;;;;;;;18.23;100.00;-18517.66;4994045;28;19926;-81
2023/05/21 07:53:39;;;;;;;;;;;;;;;18.03;100.00;-18512.47;5002519;28;20431;-81
2023/05/21 07:56:05;;;;;;;;;;;;;;;18.02;100.00;-18512.06;5010934;28;19918;-80
2023/05/21 07:58:31;;;;;;;;;;;;;;;18.22;100.00;-18517.53;5006847;28;19952;-81
2023/05/21 08:00:57;;;;;;;;;;;;;;;18.29;100.00;-18519.31;5008263;28;19921;-81
2023/05/21 08:03:22;;;;;;;;;;;;;;;18.32;100.00;-18520.13;5008480;28;19921;-81
2023/05/21 08:05:48;;;;;;;;;;;;;;;18.60;100.00;-18527.47;5010172;28;19936;-81
2023/05/21 08:08:17;;;;;;;;;;;;;;;18.83;100.00;-18533.75;5014468;28;20016;-81
2023/05/21 08:10:42;;;;;;;;;;;;;;;18.74;100.00;-18531.16;5006389;28;20316;-80
2023/05/21 08:13:07;;;;;;;;;;;;;;;18.75;100.00;-18531.44;5002317;28;19921;-81
2023/05/21 08:15:33;;;;;;;;;;;;;;;18.82;100.00;-18533.34;5020064;28;19925;-81
2023/05/21 08:17:58;;;;;;;;;;;;;;;19.03;100.00;-18538.94;4999211;28;20559;-81
2023/05/21 08:20:23;;;;;;;;;;;;;;;18.85;100.00;-18534.31;4994476;28;19926;-81
2023/05/21 08:22:49;;;;;;;;;;;;;;;18.88;100.00;-18535.00;5008594;28;19917;-81
2023/05/21 08:25:14;;;;;;;;;;;;;;;19.07;100.00;-18540.03;5002963;28;19957;-82
2023/05/21 08:27:39;;;;;;;;;;;;;;;18.90;100.00;-18535.66;5009990;28;19922;-82
2023/05/21 08:30:05;;;;;;;;;;;;;;;18.88;100.00;-18535.00;5008772;28;19917;-82
2023/05/21 08:32:30;;;;;;;;;;;;;;;19.01;100.00;-18538.53;5007914;28;19924;-82
2023/05/21 08:34:57;;;;;;;;;;;;;;;18.99;100.00;-18538.00;5008782;28;19925;-80
2023/05/21 08:37:22;;;;;;;;;;;;;;;19.16;100.00;-18542.63;4999540;28;20036;-81
2023/05/21 08:39:47;;;;;;;;;;;;;;;19.33;100.00;-18547.13;4990838;28;20078;-81
2023/05/21 08:42:26;;;;;;;;;;;;;;;19.36;100.00;-18547.78;4989622;28;19929;-82
2023/05/21 08:44:53;;;;;;;;;;;;;;;19.39;100.00;-18548.75;5016198;28;20016;-81
2023/05/21 08:47:22;;;;;;;;;;;;;;;19.61;100.00;-18554.47;5003595;28;19922;-84
2023/05/21 08:49:49;;;;;;;;;;;;;;;19.61;100.00;-18554.59;5004732;28;19921;-81
2023/05/21 08:52:14;;;;;;;;;;;;;;;19.72;100.00;-18557.34;5006128;28;20037;-82
2023/05/21 08:54:40;;;;;;;;;;;;;;;19.60;100.00;-18554.19;5013194;28;19949;-81
2023/05/21 08:57:05;;;;;;;;;;;;;;;19.78;100.00;-18559.09;5007977;28;19949;-81
2023/05/21 08:59:30;;;;;;;;;;;;;;;19.88;100.00;-18561.69;5012224;28;20013;-81
2023/05/21 09:01:56;;;;;;;;;;;;;;;19.94;100.00;-18563.31;5007406;28;19930;-81
2023/05/21 09:04:22;;;;;;;;;;;;;;;20.02;100.00;-18565.38;5012501;28;19918;-81
2023/05/21 09:06:47;;;;;;;;;;;;;;;20.00;100.00;-18564.97;5017479;28;19943;-81
2023/05/21 09:09:18;;;;;;;;;;;;;;;20.22;100.00;-18570.69;5015747;28;19960;-80
2023/05/21 09:11:45;;;;;;;;;;;;;;;20.20;100.00;-18570.13;5009865;28;19921;-82
2023/05/21 09:14:10;;;;;;;;;;;;;;;20.38;100.00;-18574.91;5013162;28;19922;-82
2023/05/21 09:16:35;;;;;;;;;;;;;;;20.53;100.00;-18578.84;5012521;28;20300;-81
2023/05/21 09:19:01;;;;;;;;;;;;;;;20.54;100.00;-18579.13;5019394;28;19957;-81
2023/05/21 09:21:27;;;;;;;;;;;;;;;20.43;100.00;-18576.41;5021677;28;19917;-81
2023/05/21 09:23:56;;;;;;;;;;;;;;;20.59;100.00;-18580.47;5020995;28;19926;-81
2023/05/21 09:26:22;;;;;;;;;;;;;;;20.61;100.00;-18581.16;5016506;28;19930;-81
2023/05/21 09:28:47;;;;;;;;;;;;;;;20.75;100.00;-18584.69;5015347;28;19924;-81
2023/05/21 09:31:12;;;;;;;;;;;;;;;20.82;100.00;-18586.59;5016337;28;20358;-80
2023/05/21 09:33:44;;;;;;;;;;;;;;;20.67;100.00;-18582.78;5023587;28;19925;-81
2023/05/21 09:36:10;;;;;;;;;;;;;;;20.78;100.00;-18585.66;5026889;28;19952;-81
2023/05/21 09:38:35;;;;;;;;;;;;;;;20.80;100.00;-18586.19;5010280;28;19925;-81
2023/05/21 09:41:03;;;;;;;;;;;;;;;20.88;100.00;-18588.22;5018061;28;19951;-81
2023/05/21 09:43:29;;;;;;;;;;;;;;;20.86;100.00;-18587.69;5017013;28;20355;-81
2023/05/21 09:45:55;;;;;;;;;;;;;;;20.89;100.00;-18588.63;5009008;28;19929;-83
2023/05/21 09:48:37;;;;;;;;;;;;;;;21.07;100.00;-18593.41;5005532;28;19998;-81
2023/05/21 09:51:16;;;;;;;;;;;;;;;21.30;100.00;-18599.38;5008636;28;19989;-81
2023/05/21 09:53:52;;;;;;;;;;;;;;;21.35;100.00;-18600.88;5013932;28;19933;-80
2023/05/21 09:56:21;;;;;;;;;;;;;;;21.69;100.00;-18609.72;5007022;28;19917;-80
2023/05/21 09:58:46;;;;;;;;;;;;;;;21.82;100.00;-18613.38;5010246;28;19917;-81
2023/05/21 10:01:12;;;;;;;;;;;;;;;22.03;100.00;-18618.94;5009369;28;20395;-81
2023/05/21 10:03:38;;;;;;;;;;;;;;;22.30;100.00;-18626.16;5010234;28;20008;-81
2023/05/21 10:06:06;;;;;;;;;;;;;;;22.14;100.00;-18621.66;5005734;28;19922;-81
2023/05/21 10:08:35;;;;;;;;;;;;;;;21.77;100.00;-18612.03;5014914;28;19928;-81
2023/05/21 10:11:00;;;;;;;;;;;;;;;21.94;100.00;-18616.38;5009804;28;19965;-81
2023/05/21 10:13:27;;;;;;;;;;;;;;;21.93;100.00;-18616.25;5006123;28;20328;-81
2023/05/21 10:15:58;;;;;;;;;;;;;;;21.91;100.00;-18615.69;5012376;28;20376;-81
2023/05/21 10:18:27;;;;;;;;;;;;;;;22.04;100.00;-18619.09;5011498;28;20420;-81
2023/05/21 10:20:52;;;;;;;;;;;;;;;22.01;100.00;-18618.28;5015038;28;19918;-81
2023/05/21 10:23:19;;;;;;;;;;;;;;;22.21;100.00;-18623.72;5013686;28;19924;-81
2023/05/21 10:25:45;;;;;;;;;;;;;;;22.60;100.00;-18633.91;4998354;28;19953;-81
2023/05/21 10:28:10;;;;;;;;;;;;;;;22.69;100.00;-18636.47;5011922;28;19929;-81
2023/05/21 10:30:36;;;;;;;;;;;;;;;22.67;100.00;-18635.94;5005356;28;19925;-82
2023/05/21 10:33:02;;;;;;;;;;;;;;;22.67;100.00;-18635.94;4993393;28;19929;-81
2023/05/21 10:35:28;;;;;;;;;;;;;;;22.64;100.00;-18634.97;4993019;28;19917;-81
2023/05/21 10:37:56;;;;;;;;;;;;;;;22.78;100.00;-18638.66;5012562;28;19968;-82
2023/05/21 10:40:21;;;;;;;;;;;;;;;22.61;100.00;-18634.31;5011916;28;19929;-81
2023/05/21 10:42:49;;;;;;;;;;;;;;;22.87;100.00;-18641.22;4995113;28;20532;-82
2023/05/21 10:45:33;;;;;;;;;;;;;;;22.95;100.00;-18643.41;5007671;28;20313;-81
2023/05/21 10:48:14;;;;;;;;;;;;;;;22.96;100.00;-18643.53;5014144;28;19922;-80
2023/05/21 10:50:52;;;;;;;;;;;;;;;23.01;100.00;-18644.75;5009468;28;19987;-81
2023/05/21 10:53:27;;;;;;;;;;;;;;;23.09;100.00;-18646.94;5004862;28;19921;-81
2023/05/21 10:55:59;;;;;;;;;;;;;;;23.22;100.00;-18650.31;5011403;28;20673;-82
2023/05/21 10:58:33;;;;;;;;;;;;;;;23.17;100.00;-18649.09;4999059;28;19921;-82
2023/05/21 11:01:00;;;;;;;;;;;;;;;23.33;100.00;-18653.31;5008221;28;19922;-82
2023/05/21 11:03:26;;;;;;;;;;;;;;;23.42;100.00;-18655.88;4998685;28;19922;-81
2023/05/21 11:05:53;;;;;;;;;;;;;;;23.53;100.00;-18658.72;4992721;28;20003;-82
2023/05/21 11:08:22;;;;;;;;;;;;;;;23.59;100.00;-18660.34;4999905;28;19922;-81
2023/05/21 11:10:52;;;;;;;;;;;;;;;23.61;100.00;-18660.75;5007047;28;19922;-81
2023/05/21 11:13:18;;;;;;;;;;;;;;;23.51;100.00;-18658.19;5003963;28;19922;-81
2023/05/21 11:15:55;;;;;;;;;;;;;;;23.59;100.00;-18660.34;5002862;28;19984;-82
2023/05/21 11:18:21;;;;;;;;;;;;;;;23.67;100.00;-18662.25;5005903;28;20294;-82
2023/05/21 11:20:52;;;;;;;;;;;;;;;23.70;100.00;-18663.06;5010063;28;19929;-82
2023/05/21 11:23:22;;;;;;;;;;;;;;;23.86;100.00;-18667.41;5003424;28;19929;-82
2023/05/21 11:26:00;;;;;;;;;;;;;;;24.01;100.00;-18671.47;5003033;28;19925;-82
2023/05/21 11:28:33;;;;;;;;;;;;;;;23.90;100.00;-18668.38;5009670;28;20452;-81
2023/05/21 11:31:18;;;;;;;;;;;;;;;23.79;100.00;-18665.50;5006832;28;20040;-81
2023/05/21 11:33:46;;;;;;;;;;;;;;;23.72;100.00;-18663.63;5025064;28;20461;-82
2023/05/21 11:36:12;;;;;;;;;;;;;;;23.71;100.00;-18663.34;5002104;28;19929;-82
2023/05/21 11:38:37;;;;;;;;;;;;;;;23.63;100.00;-18661.44;5007128;28;19930;-82
2023/05/21 11:41:03;;;;;;;;;;;;;;;23.67;100.00;-18662.25;5008022;28;20008;-81
2023/05/21 11:43:29;;;;;;;;;;;;;;;23.87;100.00;-18667.69;5007960;28;19972;-82
2023/05/21 11:45:55;;;;;;;;;;;;;;;24.31;100.00;-18679.47;5013604;28;19933;-82
2023/05/21 11:48:23;;;;;;;;;;;;;;;24.32;100.00;-18679.59;5004617;28;19941;-82
2023/05/21 11:50:48;;;;;;;;;;;;;;;24.33;100.00;-18679.88;5010175;28;19932;-82
2023/05/21 11:53:14;;;;;;;;;;;;;;;24.54;99.79;-18685.44;5005711;28;20296;-82
2023/05/21 11:55:46;;;;;;;;;;;;;;;24.14;98.65;-18674.88;5003119;28;20021;-82
2023/05/21 11:58:18;;;;;;;;;;;;;;;24.12;100.00;-18674.19;4998210;28;20023;-80
2023/05/21 12:00:43;;;;;;;;;;;;;;;24.31;100.00;-18679.47;5005393;28;19932;-81
2023/05/21 12:03:12;;;;;;;;;;;;;;;24.07;100.00;-18672.97;5008317;28;19922;-83
2023/05/21 12:05:45;;;;;;;;;;;;;;;24.24;100.00;-18677.44;5006434;28;19934;-82
2023/05/21 12:08:12;;;;;;;;;;;;;;;24.30;100.00;-18679.06;5000987;28;20414;-82
2023/05/21 12:10:38;;;;;;;;;;;;;;;24.33;100.00;-18679.88;4983413;28;19918;-80
2023/05/21 12:13:04;;;;;;;;;;;;;;;24.38;100.00;-18681.22;5001375;28;19925;-82
2023/05/21 12:15:29;;;;;;;;;;;;;;;24.14;100.00;-18674.72;5000782;28;20407;-82
2023/05/21 12:17:55;;;;;;;;;;;;;;;24.19;100.00;-18676.22;5000514;28;19960;-83
2023/05/21 12:20:21;;;;;;;;;;;;;;;24.48;100.00;-18683.94;5004462;28;19921;-82
2023/05/21 12:22:47;;;;;;;;;;;;;;;24.67;100.00;-18688.81;5010739;28;19965;-83
2023/05/21 12:25:12;;;;;;;;;;;;;;;25.00;100.00;-18697.63;4999406;28;20025;-82